map of 1A5 home
1A5 - Airport
Location
City:  Franklin, North Carolina, United States
Name:Macon County Airport
FAA LID:1A5

Details
Type:Airport (Airfield)
Use:Public/Civil
Latitude:3513'20"N (35.222312)
Longitude:8325'12"W (-83.419996)
Datum:WGS 1984
Elevation:2034 ft (620 m)
Variation:6.09W (WMM2015 magnetic declination)
-0.07 annual change
Runways:1
Longest:5000 × 100 ft (1524 × 30.5 m), paved

Time
Time Zone:UTC-5 (DST-4)
Local Time:

Weather
METAR:K1A5 172100Z AUTO 00000KT 10SM CLR 17/01 A3018 RMK AO2 T01700013

Related Locations
Nearby:
Farthest:YAUG: 11387 mi / 18326 km
Augusta [Augusta Airport], WA, AU

Find:

   beyond  
but within

Other Information
Maps:
NOTAMs:
Links:
Sources:

  
  • flag of United States
  • flag of North Carolina
  

Sectional Chart

Flight Planning
at skyvector.com

Satellite Image

Google Maps Satellite view

 

Copyright © 2004-2018 Karl L. Swartz. All rights reserved.
The Great Circle Mapper name and logo are trademarks of the Great Circle Mapper.
All other trademarks mentioned herein belong to their respective owners.
Please see credits for attibutions and further copyright information.

  Follow gcmap on Facebook Follow gcmap on Twitter Follow gcmap on Google+ GCmap on LinkedIn

hCard Microformat

Geo Microformat